Air Navigation Services of Czech Republic
Airport: LKPJ Updated:  11.08.2020 00:30:28  UTC
 METAR LKPJ 11.08. 00:30 ...
METAR LKPJ 110030Z AUTO 32003KT 9999 OVC130 22/17 Q1017=